Time;durP1;ratioP1;P1;durP2;ratioP2;P2;SDS_P1;SDS_P2;PMS_P1;PMS_P2;Temp;Humidity;BMP_temperature;BMP_pressure;BME280_temperature;BME280_humidity;BME280_pressure;Samples;Min_cycle;Max_cycle;Signal;HPM_P1;HPM_P2
2021/03/18 00:01:29;;;;;;;11.45;4.50;;;6.30;99.90;;;;;;5042687;28;20505;-60
2021/03/18 00:03:59;;;;;;;9.35;4.28;;;6.30;99.90;;;;;;5043900;28;20036;-60
2021/03/18 00:06:25;;;;;;;9.20;4.53;;;6.10;99.90;;;;;;5044328;28;20411;-60
2021/03/18 00:08:51;;;;;;;5.57;2.83;;;6.20;99.90;;;;;;5043673;28;20161;-60
2021/03/18 00:11:19;;;;;;;5.88;3.10;;;6.40;99.90;;;;;;5044024;28;20501;-60
2021/03/18 00:13:47;;;;;;;4.45;2.28;;;6.40;99.90;;;;;;5043849;28;20111;-60
2021/03/18 00:16:15;;;;;;;4.45;2.40;;;6.50;99.90;;;;;;5043559;28;20020;-60
2021/03/18 00:18:48;;;;;;;6.03;2.75;;;6.30;99.90;;;;;;5044071;28;20024;-60
2021/03/18 00:21:14;;;;;;;7.00;3.30;;;6.30;99.90;;;;;;5047119;28;20017;-60
2021/03/18 00:23:40;;;;;;;14.93;5.80;;;6.30;99.90;;;;;;5047716;28;20024;-60
2021/03/18 00:26:07;;;;;;;7.03;4.30;;;6.00;99.90;;;;;;5047029;28;20592;-61
2021/03/18 00:28:34;;;;;;;8.38;4.22;;;5.70;99.90;;;;;;5047455;28;20029;-61
2021/03/18 00:31:00;;;;;;;5.53;3.45;;;5.70;99.90;;;;;;5047199;28;20063;-61
2021/03/18 00:33:27;;;;;;;5.72;3.28;;;5.60;99.90;;;;;;5047254;28;20029;-61
2021/03/18 00:35:54;;;;;;;4.68;3.03;;;5.60;99.90;;;;;;5047747;28;20025;-61
2021/03/18 00:38:26;;;;;;;4.93;3.10;;;5.60;99.90;;;;;;5047320;28;20025;-60
2021/03/18 00:40:59;;;;;;;5.40;3.25;;;5.60;99.90;;;;;;5047696;28;20033;-60
2021/03/18 00:43:26;;;;;;;5.00;2.78;;;5.50;99.90;;;;;;5047407;28;20087;-60
2021/03/18 00:45:52;;;;;;;3.65;2.80;;;5.40;99.90;;;;;;5047473;28;20107;-60
2021/03/18 00:48:21;;;;;;;3.80;2.67;;;5.50;99.90;;;;;;5046999;28;20033;-61
2021/03/18 00:50:55;;;;;;;3.47;2.45;;;5.40;99.90;;;;;;5047140;28;20507;-60
2021/03/18 00:53:30;;;;;;;3.35;2.08;;;5.50;99.90;;;;;;5047556;28;20414;-60
2021/03/18 00:55:56;;;;;;;3.47;2.55;;;5.70;99.90;;;;;;5047089;28;20021;-61
2021/03/18 00:58:22;;;;;;;3.17;2.63;;;5.50;99.90;;;;;;5047819;28;20049;-60
2021/03/18 01:00:53;;;;;;;3.35;2.47;;;5.50;99.90;;;;;;5046820;28;20079;-60
2021/03/18 01:03:21;;;;;;;4.60;3.33;;;5.50;99.90;;;;;;5046813;28;20033;-61
2021/03/18 01:06:15;;;;;;;5.82;3.20;;;5.20;99.90;;;;;;5046384;28;20056;-60
2021/03/18 01:08:42;;;;;;;4.80;3.72;;;5.10;99.90;;;;;;5043665;28;20041;-60
2021/03/18 01:11:17;;;;;;;4.07;3.00;;;5.10;99.90;;;;;;5046336;28;20052;-60
2021/03/18 01:13:52;;;;;;;3.30;2.47;;;5.10;99.90;;;;;;5046265;28;20111;-61
2021/03/18 01:16:26;;;;;;;4.80;3.20;;;5.30;99.90;;;;;;5046484;28;20066;-61
2021/03/18 01:19:00;;;;;;;4.50;2.92;;;5.20;99.90;;;;;;5046825;28;20028;-60
2021/03/18 01:21:32;;;;;;;3.47;3.08;;;5.20;99.90;;;;;;5046259;28;20102;-60
2021/03/18 01:24:02;;;;;;;4.15;3.15;;;5.10;99.90;;;;;;5046066;28;20091;-60
2021/03/18 01:26:28;;;;;;;3.63;2.83;;;5.20;99.90;;;;;;5046140;28;20021;-60
2021/03/18 01:28:54;;;;;;;3.80;3.38;;;5.10;99.90;;;;;;5046954;28;20043;-61
2021/03/18 01:31:21;;;;;;;3.78;2.95;;;5.00;99.90;;;;;;5046393;28;20052;-60
2021/03/18 01:33:48;;;;;;;5.45;2.75;;;5.00;99.90;;;;;;5045885;28;20040;-60
2021/03/18 01:36:14;;;;;;;4.82;3.33;;;5.00;99.90;;;;;;5045809;28;20021;-60
2021/03/18 01:38:42;;;;;;;2.58;2.05;;;5.20;99.90;;;;;;5046046;28;20029;-60
2021/03/18 01:41:09;;;;;;;4.75;3.22;;;5.20;99.90;;;;;;5046321;28;20025;-59
2021/03/18 01:43:36;;;;;;;4.72;3.55;;;5.00;99.90;;;;;;5046113;28;20024;-60
2021/03/18 01:46:02;;;;;;;3.80;3.38;;;5.00;99.90;;;;;;5046118;28;20083;-60
2021/03/18 01:48:29;;;;;;;3.92;3.05;;;5.00;99.90;;;;;;5045716;28;20071;-60
2021/03/18 01:50:55;;;;;;;4.57;3.05;;;5.00;99.90;;;;;;5046505;28;20107;-60
2021/03/18 01:53:22;;;;;;;4.85;3.67;;;5.00;99.90;;;;;;5046313;28;20059;-60
2021/03/18 01:55:50;;;;;;;6.03;3.40;;;4.80;99.90;;;;;;5045809;28;20029;-61
2021/03/18 01:58:17;;;;;;;4.30;3.22;;;4.90;99.90;;;;;;5045575;28;20028;-60
2021/03/18 02:00:45;;;;;;;4.38;3.72;;;4.90;99.90;;;;;;5045799;28;20041;-61
2021/03/18 02:03:12;;;;;;;5.03;4.00;;;4.70;99.90;;;;;;5045209;28;20029;-61
2021/03/18 02:05:41;;;;;;;6.47;4.15;;;4.70;99.90;;;;;;5045304;28;20032;-60
2021/03/18 02:08:08;;;;;;;4.25;3.42;;;4.60;99.90;;;;;;5044961;28;20107;-61
2021/03/18 02:10:37;;;;;;;5.35;4.18;;;4.70;99.90;;;;;;5045505;28;20032;-60
2021/03/18 02:13:08;;;;;;;6.38;5.07;;;4.60;99.90;;;;;;5045312;28;20063;-60
2021/03/18 02:15:44;;;;;;;5.60;4.45;;;4.60;99.90;;;;;;5045302;28;20025;-61
2021/03/18 02:18:29;;;;;;;4.78;4.05;;;4.50;99.90;;;;;;5044823;28;20021;-61
2021/03/18 02:21:31;;;;;;;8.20;4.50;;;4.60;99.90;;;;;;5045591;28;20028;-61
2021/03/18 02:24:17;;;;;;;7.10;4.43;;;4.50;99.90;;;;;;5045186;28;20033;-61
2021/03/18 02:27:07;;;;;;;11.90;5.45;;;4.40;99.90;;;;;;5043828;28;20021;-61
2021/03/18 02:29:59;;;;;;;5.88;4.30;;;4.40;99.90;;;;;;5045339;28;20029;-61
2021/03/18 02:33:08;;;;;;;6.30;4.80;;;4.40;99.90;;;;;;5045594;28;20213;-60
2021/03/18 02:35:55;;;;;;;8.02;5.43;;;4.30;99.90;;;;;;5044789;28;20024;-61
2021/03/18 02:38:28;;;;;;;6.80;4.97;;;4.10;99.90;;;;;;5045335;28;20036;-60
2021/03/18 02:41:09;;;;;;;10.13;5.88;;;4.10;99.90;;;;;;5045329;28;20022;-60
2021/03/18 02:43:43;;;;;;;5.95;4.32;;;4.10;99.90;;;;;;5044202;28;20102;-60
2021/03/18 02:46:10;;;;;;;6.53;4.93;;;4.10;99.90;;;;;;5044700;28;20036;-60
2021/03/18 02:48:41;;;;;;;7.43;4.95;;;4.00;99.90;;;;;;5044474;28;20017;-60
2021/03/18 02:51:16;;;;;;;5.78;4.55;;;4.00;99.90;;;;;;5044549;28;20139;-60
2021/03/18 02:53:44;;;;;;;6.15;4.35;;;4.00;99.90;;;;;;5045065;28;20028;-60
2021/03/18 02:56:13;;;;;;;7.13;4.85;;;4.10;99.90;;;;;;5044478;28;20025;-61
2021/03/18 02:58:43;;;;;;;6.25;4.63;;;4.00;99.90;;;;;;5044636;28;20024;-61
2021/03/18 03:01:11;;;;;;;6.38;4.88;;;3.90;99.90;;;;;;5044230;28;20107;-60
2021/03/18 03:03:38;;;;;;;5.90;4.30;;;4.00;99.90;;;;;;5044327;28;20029;-60
2021/03/18 03:06:05;;;;;;;6.70;4.68;;;4.00;99.90;;;;;;5042778;28;20456;-61
2021/03/18 03:08:33;;;;;;;6.60;4.00;;;4.00;99.90;;;;;;5044207;28;20403;-60
2021/03/18 03:11:02;;;;;;;7.38;4.95;;;3.80;99.90;;;;;;5044275;28;20443;-60
2021/03/18 03:13:36;;;;;;;6.32;4.45;;;3.80;99.90;;;;;;5044536;28;20407;-61
2021/03/18 03:16:06;;;;;;;7.95;5.40;;;4.00;99.90;;;;;;5044008;28;20072;-60
2021/03/18 03:18:34;;;;;;;7.93;5.25;;;3.80;99.90;;;;;;5044277;28;20029;-60
2021/03/18 03:21:01;;;;;;;7.55;6.03;;;3.70;99.90;;;;;;5044290;28;20566;-60
2021/03/18 03:23:29;;;;;;;7.90;5.72;;;3.70;99.90;;;;;;5044276;28;20469;-61
2021/03/18 03:25:59;;;;;;;6.88;5.20;;;3.70;99.90;;;;;;5044350;28;20426;-61
2021/03/18 03:28:26;;;;;;;6.95;5.45;;;3.70;99.90;;;;;;5044441;28;20396;-61
2021/03/18 03:30:58;;;;;;;9.40;6.00;;;3.60;99.90;;;;;;5044498;28;20467;-61
2021/03/18 03:33:26;;;;;;;7.00;5.22;;;3.60;99.90;;;;;;5044661;28;20029;-60
2021/03/18 03:35:55;;;;;;;7.90;5.43;;;3.70;99.90;;;;;;5044691;28;20238;-60
2021/03/18 03:38:24;;;;;;;6.30;4.63;;;3.60;99.90;;;;;;5044791;28;20045;-60
2021/03/18 03:40:51;;;;;;;6.55;4.90;;;3.90;99.90;;;;;;5044905;28;20025;-60
2021/03/18 03:43:18;;;;;;;6.35;4.78;;;3.90;99.90;;;;;;5044212;28;20028;-61
2021/03/18 03:45:45;;;;;;;6.32;4.75;;;3.70;99.90;;;;;;5044018;28;20112;-61
2021/03/18 03:48:12;;;;;;;6.32;4.40;;;3.70;99.90;;;;;;5043752;28;20021;-61
2021/03/18 03:50:40;;;;;;;7.47;3.85;;;3.70;99.90;;;;;;5044228;28;20025;-61
2021/03/18 03:53:33;;;;;;;5.13;4.13;;;3.70;99.90;;;;;;5043808;28;20025;-60
2021/03/18 03:56:12;;;;;;;6.97;4.75;;;3.80;99.90;;;;;;5047530;28;20033;-60
2021/03/18 03:58:47;;;;;;;7.68;4.50;;;3.90;99.90;;;;;;5048241;28;20055;-60
2021/03/18 04:01:36;;;;;;;8.35;5.05;;;3.80;99.90;;;;;;5048127;28;20139;-61
2021/03/18 04:04:32;;;;;;;6.82;4.80;;;3.70;99.90;;;;;;5047630;28;20032;-60
2021/03/18 04:07:01;;;;;;;7.28;4.90;;;3.80;99.90;;;;;;5047425;28;20094;-60
2021/03/18 04:09:28;;;;;;;5.50;4.18;;;3.80;99.90;;;;;;5047212;28;20025;-60
2021/03/18 04:11:56;;;;;;;5.55;3.97;;;4.00;99.90;;;;;;5048171;28;20029;-60
2021/03/18 04:14:28;;;;;;;5.13;3.92;;;4.10;99.90;;;;;;5048318;28;20032;-60
2021/03/18 04:16:57;;;;;;;5.80;4.20;;;4.20;99.90;;;;;;5047830;28;20025;-60
2021/03/18 04:19:25;;;;;;;5.70;4.25;;;4.00;99.90;;;;;;5048388;28;20027;-60
2021/03/18 04:21:53;;;;;;;6.63;4.80;;;4.00;99.90;;;;;;5048264;28;20025;-60
2021/03/18 04:24:22;;;;;;;8.85;5.35;;;3.90;99.90;;;;;;5047595;28;20029;-60
2021/03/18 04:26:50;;;;;;;6.93;4.95;;;3.90;99.90;;;;;;5047325;28;20028;-60
2021/03/18 04:29:17;;;;;;;7.78;5.68;;;3.90;99.90;;;;;;5047217;28;20167;-61
2021/03/18 04:31:43;;;;;;;5.80;4.30;;;3.80;99.90;;;;;;5047409;28;20021;-60
2021/03/18 04:34:13;;;;;;;6.80;5.20;;;3.90;99.90;;;;;;5046907;28;20021;-60
2021/03/18 04:36:43;;;;;;;7.55;4.80;;;4.00;99.90;;;;;;5047153;28;20064;-60
2021/03/18 04:39:10;;;;;;;7.15;5.60;;;3.90;99.90;;;;;;5047003;28;20021;-60
2021/03/18 04:41:37;;;;;;;7.72;5.43;;;3.90;99.90;;;;;;5047305;28;20021;-63
2021/03/18 04:44:04;;;;;;;7.95;5.65;;;3.80;99.90;;;;;;5046900;28;20116;-60
2021/03/18 04:46:32;;;;;;;8.57;6.03;;;3.90;99.90;;;;;;5046654;28;20039;-61
2021/03/18 04:49:02;;;;;;;9.77;6.55;;;3.80;99.90;;;;;;5046737;28;20025;-61
2021/03/18 04:51:32;;;;;;;7.97;5.57;;;3.80;99.90;;;;;;5046959;28;20032;-60
2021/03/18 04:53:59;;;;;;;10.32;6.80;;;3.90;99.90;;;;;;5046631;28;20109;-61
2021/03/18 04:56:28;;;;;;;10.30;6.65;;;3.80;99.90;;;;;;5047374;28;20029;-60
2021/03/18 04:58:56;;;;;;;8.93;6.15;;;3.80;99.90;;;;;;5045559;28;20017;-61
2021/03/18 05:01:26;;;;;;;12.50;7.90;;;3.80;99.90;;;;;;5047305;28;20029;-60
2021/03/18 05:03:52;;;;;;;9.80;6.85;;;3.70;99.90;;;;;;5047313;28;20025;-60
2021/03/18 05:06:22;;;;;;;10.05;6.40;;;3.70;99.90;;;;;;5046076;28;20036;-60
2021/03/18 05:08:48;;;;;;;10.40;6.38;;;3.70;99.90;;;;;;5046176;28;20108;-60
2021/03/18 05:11:14;;;;;;;9.13;6.65;;;3.70;99.90;;;;;;5046505;28;20120;-61
2021/03/18 05:13:44;;;;;;;10.00;6.75;;;3.70;99.90;;;;;;5046440;28;20025;-61
2021/03/18 05:16:12;;;;;;;9.77;6.93;;;3.70;99.90;;;;;;5045403;28;20021;-61
2021/03/18 05:18:39;;;;;;;11.60;6.97;;;3.70;99.90;;;;;;5035399;28;20031;-60
2021/03/18 05:21:08;;;;;;;12.55;8.23;;;3.70;99.90;;;;;;5046410;28;20056;-61
2021/03/18 05:23:37;;;;;;;18.40;8.75;;;3.50;99.90;;;;;;5052350;28;20071;-61
2021/03/18 05:26:06;;;;;;;14.15;9.02;;;3.40;99.90;;;;;;5065809;28;20028;-60
2021/03/18 05:28:32;;;;;;;13.07;8.13;;;3.40;99.90;;;;;;5047437;28;20025;-61
2021/03/18 05:31:00;;;;;;;13.27;9.20;;;3.60;99.90;;;;;;5046900;28;20596;-61
2021/03/18 05:33:26;;;;;;;13.20;8.00;;;3.30;99.90;;;;;;5039020;28;20025;-61
2021/03/18 05:35:53;;;;;;;11.70;7.88;;;3.40;99.90;;;;;;5046318;28;20025;-61
2021/03/18 05:38:21;;;;;;;14.48;8.85;;;3.40;99.90;;;;;;5046315;28;20021;-61
2021/03/18 05:40:54;;;;;;;14.75;7.95;;;3.20;99.90;;;;;;5046100;28;20033;-61
2021/03/18 05:43:21;;;;;;;13.15;8.60;;;3.30;99.90;;;;;;5046327;28;20025;-61
2021/03/18 05:45:47;;;;;;;17.17;10.35;;;3.30;99.90;;;;;;5045762;28;20036;-61
2021/03/18 05:48:14;;;;;;;14.88;9.02;;;3.20;99.90;;;;;;5045779;28;20025;-61
2021/03/18 05:50:41;;;;;;;14.50;8.85;;;3.30;99.90;;;;;;5045881;28;20031;-61
2021/03/18 05:53:10;;;;;;;14.18;8.63;;;3.30;99.90;;;;;;5045644;28;20028;-61
2021/03/18 05:55:36;;;;;;;15.93;10.00;;;3.40;99.90;;;;;;5045750;28;20021;-61
2021/03/18 05:58:03;;;;;;;15.82;10.18;;;3.20;99.90;;;;;;5045518;28;20017;-61
2021/03/18 06:00:33;;;;;;;15.68;8.95;;;3.20;99.90;;;;;;5045913;28;20044;-61
2021/03/18 06:03:02;;;;;;;41.13;16.83;;;3.20;99.90;;;;;;5045028;28;20269;-62
2021/03/18 06:05:28;;;;;;;31.08;14.40;;;3.20;99.90;;;;;;5045388;28;20037;-62
2021/03/18 06:07:55;;;;;;;20.83;10.70;;;3.30;99.90;;;;;;5045534;28;20036;-62
2021/03/18 06:10:24;;;;;;;15.70;9.75;;;3.30;99.90;;;;;;5046135;28;20056;-62
2021/03/18 06:12:54;;;;;;;15.68;10.07;;;3.30;99.90;;;;;;5045829;28;20059;-62
2021/03/18 06:15:22;;;;;;;12.63;8.38;;;3.30;99.90;;;;;;5045800;28;20017;-62
2021/03/18 06:17:51;;;;;;;12.95;8.90;;;3.20;99.90;;;;;;5044432;28;20059;-62
2021/03/18 06:20:21;;;;;;;15.57;9.25;;;3.30;99.90;;;;;;5045405;28;20021;-62
2021/03/18 06:22:49;;;;;;;13.65;8.38;;;3.30;99.90;;;;;;5045477;28;20040;-61
2021/03/18 06:25:21;;;;;;;12.68;8.52;;;3.50;99.90;;;;;;5045045;28;20427;-62
2021/03/18 06:27:48;;;;;;;16.27;10.40;;;3.50;99.90;;;;;;5045183;28;20055;-62
2021/03/18 06:30:15;;;;;;;15.75;10.15;;;3.50;99.90;;;;;;5044762;28;20017;-62
2021/03/18 06:32:42;;;;;;;14.02;9.20;;;3.30;99.90;;;;;;5045084;28;20422;-62
2021/03/18 06:35:10;;;;;;;13.70;8.93;;;3.30;99.90;;;;;;5044638;28;20024;-62
2021/03/18 06:37:45;;;;;;;12.38;7.88;;;3.40;99.90;;;;;;5045075;28;20100;-62
2021/03/18 06:40:24;;;;;;;16.02;10.00;;;3.50;99.90;;;;;;5044504;28;20517;-62
2021/03/18 06:43:02;;;;;;;13.93;9.40;;;3.40;99.90;;;;;;5045596;28;20369;-62
2021/03/18 06:45:40;;;;;;;16.23;10.18;;;3.30;99.90;;;;;;5044742;28;20021;-61
2021/03/18 06:48:15;;;;;;;15.68;9.60;;;3.30;99.90;;;;;;5044628;28;20139;-61
2021/03/18 06:50:47;;;;;;;13.85;9.25;;;3.40;99.90;;;;;;5044548;28;20049;-62
2021/03/18 06:53:23;;;;;;;15.55;9.35;;;3.30;99.90;;;;;;5044222;28;20036;-62
2021/03/18 06:55:53;;;;;;;14.80;9.35;;;3.30;99.90;;;;;;5044695;28;20034;-62
2021/03/18 06:58:24;;;;;;;16.13;10.00;;;3.30;99.90;;;;;;5044578;28;20029;-62
2021/03/18 07:00:53;;;;;;;17.23;10.82;;;3.30;99.90;;;;;;5044972;28;20028;-62
2021/03/18 07:03:35;;;;;;;19.50;11.88;;;3.30;99.90;;;;;;5044678;28;20042;-62
2021/03/18 07:06:09;;;;;;;15.98;10.73;;;3.30;99.90;;;;;;5044206;28;20027;-62
2021/03/18 07:08:34;;;;;;;;;;;3.40;99.90;;;;;;5044505;28;20039;-62
2021/03/18 07:11:18;;;;;;;14.90;8.80;;;3.40;99.90;;;;;;5044023;28;19913;-61
2021/03/18 07:13:46;;;;;;;13.73;8.30;;;3.50;99.90;;;;;;5044454;28;20032;-62
2021/03/18 07:16:16;;;;;;;11.27;8.25;;;3.50;99.90;;;;;;5043875;28;20044;-62
2021/03/18 07:18:53;;;;;;;13.63;8.85;;;3.60;99.90;;;;;;5044522;28;20048;-62
2021/03/18 07:21:19;;;;;;;15.00;9.43;;;3.50;99.90;;;;;;5044478;28;20120;-62
2021/03/18 07:23:47;;;;;;;11.60;8.05;;;3.50;99.90;;;;;;5044458;28;20123;-62
2021/03/18 07:26:14;;;;;;;17.63;10.07;;;3.60;99.90;;;;;;5044005;28;20037;-62
2021/03/18 07:29:10;;;;;;;15.35;9.57;;;3.50;99.90;;;;;;5044706;28;20036;-62
2021/03/18 07:31:36;;;;;;;10.98;7.30;;;3.60;99.90;;;;;;5038144;28;20045;-61
2021/03/18 07:34:02;;;;;;;13.88;8.73;;;3.80;99.90;;;;;;5049712;28;20040;-62
2021/03/18 07:36:27;;;;;;;15.95;8.23;;;4.00;99.90;;;;;;5055558;28;20033;-62
2021/03/18 07:38:53;;;;;;;13.38;8.63;;;4.00;99.90;;;;;;5070431;28;20024;-61
2021/03/18 07:41:19;;;;;;;13.20;8.25;;;3.90;99.90;;;;;;5051524;28;20318;-62
2021/03/18 07:43:46;;;;;;;12.80;7.97;;;3.90;99.90;;;;;;5047572;28;20053;-62
2021/03/18 07:46:14;;;;;;;10.98;6.57;;;3.90;99.90;;;;;;5048017;28;20534;-62
2021/03/18 07:48:43;;;;;;;10.57;7.32;;;3.80;99.90;;;;;;5048251;28;20139;-62
2021/03/18 07:51:09;;;;;;;10.23;7.28;;;3.80;99.90;;;;;;5047952;28;20036;-63
2021/03/18 07:53:36;;;;;;;12.30;7.95;;;4.00;99.90;;;;;;5047983;28;20102;-62
2021/03/18 07:56:03;;;;;;;14.15;8.38;;;3.90;99.90;;;;;;5045900;28;20025;-63
2021/03/18 07:58:43;;;;;;;13.38;8.82;;;3.90;99.90;;;;;;5046612;28;20112;-63
2021/03/18 08:01:28;;;;;;;18.52;10.73;;;4.00;99.90;;;;;;5027614;28;20029;-63
2021/03/18 08:03:54;;;;;;;16.05;10.02;;;3.90;99.90;;;;;;5039416;28;20339;-63
2021/03/18 08:06:39;;;;;;;13.32;8.48;;;3.80;99.90;;;;;;5048255;28;20275;-63
2021/03/18 08:09:05;;;;;;;11.27;8.07;;;4.00;99.90;;;;;;5047327;28;20029;-63
2021/03/18 08:11:38;;;;;;;14.20;9.82;;;4.10;99.90;;;;;;5047625;28;20056;-65
2021/03/18 08:14:08;;;;;;;18.20;9.98;;;4.00;99.90;;;;;;5047576;28;20332;-63
2021/03/18 08:16:34;;;;;;;10.82;7.57;;;4.00;99.90;;;;;;5047497;28;20099;-63
2021/03/18 08:19:03;;;;;;;13.10;7.68;;;4.10;99.90;;;;;;5050496;28;20115;-63
2021/03/18 08:21:37;;;;;;;9.65;6.57;;;4.30;99.90;;;;;;5046655;28;20514;-63
2021/03/18 08:24:06;;;;;;;8.45;5.70;;;4.40;99.90;;;;;;5046260;28;20043;-63
2021/03/18 08:26:53;;;;;;;9.07;5.15;;;4.60;99.90;;;;;;5044724;28;20103;-63
2021/03/18 08:29:23;;;;;;;8.93;5.63;;;4.80;99.90;;;;;;5040306;28;20037;-63
2021/03/18 08:31:55;;;;;;;9.00;6.03;;;4.80;99.90;;;;;;5048011;28;20033;-63
2021/03/18 08:34:40;;;;;;;9.30;6.13;;;4.60;99.90;;;;;;5051114;28;20061;-63
2021/03/18 08:37:08;;;;;;;7.72;5.63;;;4.60;99.90;;;;;;5056391;28;20240;-63
2021/03/18 08:39:41;;;;;;;8.40;5.50;;;4.60;99.90;;;;;;5047432;28;20031;-63
2021/03/18 08:42:29;;;;;;;15.85;7.43;;;4.80;99.90;;;;;;5048302;28;20029;-63
2021/03/18 08:45:18;;;;;;;9.18;6.07;;;4.60;99.90;;;;;;5043443;28;20041;-63
2021/03/18 08:47:56;;;;;;;9.40;7.10;;;4.90;99.90;;;;;;5042430;28;20127;-65
2021/03/18 08:50:27;;;;;;;9.50;5.35;;;4.60;99.90;;;;;;5047967;28;20036;-64
2021/03/18 08:52:59;;;;;;;7.68;4.95;;;4.90;99.90;;;;;;5047707;28;20032;-64
2021/03/18 08:55:44;;;;;;;7.47;5.00;;;4.90;99.90;;;;;;5047974;28;20029;-64
2021/03/18 08:58:14;;;;;;;8.30;5.20;;;4.80;99.90;;;;;;5046212;28;20032;-64
2021/03/18 09:00:41;;;;;;;6.93;4.93;;;5.00;99.90;;;;;;5044042;28;20017;-65
2021/03/18 09:03:08;;;;;;;6.10;4.53;;;5.20;99.90;;;;;;5047046;28;20044;-64
2021/03/18 09:05:34;;;;;;;7.07;4.35;;;5.30;99.90;;;;;;5045129;28;20398;-64
2021/03/18 09:08:04;;;;;;;8.10;4.82;;;5.40;99.90;;;;;;5045901;28;20013;-65
2021/03/18 09:10:36;;;;;;;7.00;4.93;;;5.30;99.90;;;;;;5049204;28;20040;-64
2021/03/18 09:13:17;;;;;;;6.70;5.05;;;5.40;99.90;;;;;;5047101;28;20488;-65
2021/03/18 09:15:47;;;;;;;5.85;4.30;;;5.40;99.90;;;;;;5050728;28;20025;-65
2021/03/18 09:18:19;;;;;;;6.00;4.65;;;5.50;99.90;;;;;;5047790;28;20017;-63
2021/03/18 09:20:56;;;;;;;6.05;4.20;;;5.60;99.90;;;;;;5048659;28;20016;-64
2021/03/18 09:23:34;;;;;;;7.15;4.45;;;5.50;99.90;;;;;;5048043;28;20057;-64
2021/03/18 09:26:06;;;;;;;6.15;4.53;;;5.40;99.90;;;;;;5045017;28;20032;-64
2021/03/18 09:28:38;;;;;;;5.75;4.40;;;5.40;99.90;;;;;;5046497;28;20032;-64
2021/03/18 09:31:05;;;;;;;6.28;3.90;;;5.40;99.90;;;;;;5026908;28;20029;-64
2021/03/18 09:33:42;;;;;;;7.05;4.30;;;5.50;99.90;;;;;;5033901;28;20550;-64
2021/03/18 09:36:14;;;;;;;5.50;3.92;;;5.70;99.90;;;;;;5047458;28;20036;-64
2021/03/18 09:38:44;;;;;;;5.20;3.83;;;5.80;99.90;;;;;;5047341;28;20087;-64
2021/03/18 09:41:24;;;;;;;5.20;3.92;;;5.80;99.90;;;;;;5046921;28;20038;-64
2021/03/18 09:44:07;;;;;;;6.45;3.75;;;5.80;99.90;;;;;;5045686;28;20070;-65
2021/03/18 09:46:35;;;;;;;5.90;3.83;;;5.60;99.90;;;;;;5048300;28;20029;-65
2021/03/18 09:49:01;;;;;;;6.45;3.88;;;5.60;99.90;;;;;;5044984;28;20075;-65
2021/03/18 09:51:29;;;;;;;7.63;4.50;;;5.70;99.90;;;;;;5047503;28;20059;-65
2021/03/18 09:54:01;;;;;;;6.43;3.85;;;5.50;99.90;;;;;;5040105;28;20025;-65
2021/03/18 09:56:30;;;;;;;6.45;4.30;;;5.60;99.90;;;;;;5034325;28;20029;-65
2021/03/18 09:59:06;;;;;;;7.13;4.50;;;5.50;99.90;;;;;;5045166;28;20021;-64
2021/03/18 10:01:32;;;;;;;6.85;4.60;;;5.60;99.90;;;;;;5044061;28;20029;-65
2021/03/18 10:04:00;;;;;;;5.88;4.28;;;5.50;99.90;;;;;;5047103;28;20025;-64
2021/03/18 10:06:51;;;;;;;5.43;4.07;;;5.70;99.90;;;;;;5047262;28;20081;-64
2021/03/18 10:09:34;;;;;;;6.15;3.97;;;5.80;99.90;;;;;;5046968;28;20474;-63
2021/03/18 10:12:16;;;;;;;5.65;4.28;;;5.70;99.90;;;;;;5045538;28;20049;-64
2021/03/18 10:14:58;;;;;;;4.32;3.35;;;5.80;99.90;;;;;;5044763;28;20609;-64
2021/03/18 10:17:31;;;;;;;4.97;3.58;;;6.10;99.90;;;;;;5044612;28;20021;-64
2021/03/18 10:20:08;;;;;;;6.17;3.90;;;6.20;99.90;;;;;;5045847;28;20029;-65
2021/03/18 10:22:37;;;;;;;5.35;3.90;;;6.20;99.90;;;;;;5047156;28;20971;-65
2021/03/18 10:25:08;;;;;;;5.43;3.80;;;6.10;99.90;;;;;;5046339;28;20052;-65
2021/03/18 10:27:41;;;;;;;8.75;5.75;;;6.30;99.90;;;;;;5045730;28;20061;-63
2021/03/18 10:30:13;;;;;;;7.28;4.47;;;6.20;99.90;;;;;;5046446;28;20025;-63
2021/03/18 10:32:43;;;;;;;5.97;3.92;;;6.20;99.90;;;;;;5046772;28;20033;-64
2021/03/18 10:35:10;;;;;;;5.13;3.83;;;6.30;99.90;;;;;;5046251;28;20033;-63
2021/03/18 10:37:44;;;;;;;5.28;3.70;;;6.50;99.90;;;;;;5045845;28;20052;-63
2021/03/18 10:40:21;;;;;;;4.65;3.13;;;6.70;99.90;;;;;;5047023;28;20072;-62
2021/03/18 10:42:49;;;;;;;4.38;3.25;;;6.90;99.90;;;;;;5044308;28;20061;-67
2021/03/18 10:45:18;;;;;;;4.25;3.05;;;6.70;99.90;;;;;;5040241;28;20029;-68
2021/03/18 10:47:47;;;;;;;3.40;2.50;;;6.80;99.90;;;;;;5042603;28;20571;-68
2021/03/18 10:50:17;;;;;;;4.38;3.25;;;6.90;99.90;;;;;;5045893;28;20490;-68
2021/03/18 10:53:01;;;;;;;3.13;2.80;;;6.70;99.90;;;;;;5044817;28;20104;-68
2021/03/18 10:55:32;;;;;;;5.63;4.35;;;6.80;99.90;;;;;;5035093;28;20025;-68
2021/03/18 10:58:02;;;;;;;5.95;3.95;;;6.60;99.90;;;;;;5042486;28;20036;-68
2021/03/18 11:00:31;;;;;;;5.93;3.88;;;6.60;99.90;;;;;;5042761;28;20036;-68
2021/03/18 11:03:01;;;;;;;4.88;3.30;;;6.70;99.90;;;;;;5042473;28;20044;-67
2021/03/18 11:05:29;;;;;;;5.40;4.05;;;6.60;99.90;;;;;;5042559;28;20113;-68
2021/03/18 11:07:58;;;;;;;7.90;4.40;;;6.40;99.90;;;;;;5042976;28;20021;-68
2021/03/18 11:10:33;;;;;;;7.03;4.88;;;6.40;99.90;;;;;;5043981;28;20047;-68
2021/03/18 11:13:03;;;;;;;12.23;7.70;;;6.20;99.90;;;;;;5043163;28;20033;-69
2021/03/18 11:15:51;;;;;;;9.98;6.32;;;6.00;99.90;;;;;;5043397;28;20056;-67
2021/03/18 11:18:25;;;;;;;12.55;7.20;;;6.10;99.90;;;;;;5042065;28;20112;-68
2021/03/18 11:20:52;;;;;;;;;;;6.10;99.90;;;;;;5044401;28;20305;-67
2021/03/18 11:23:26;;;;;;;12.43;7.40;;;6.20;99.90;;;;;;5041332;28;19913;-68
2021/03/18 11:25:58;;;;;;;14.48;9.27;;;6.20;99.90;;;;;;5030568;28;20025;-69
2021/03/18 11:28:25;;;;;;;11.15;6.82;;;6.40;99.90;;;;;;5042443;28;20119;-66
2021/03/18 11:30:54;;;;;;;8.98;5.93;;;6.60;99.90;;;;;;5043814;28;20398;-66
2021/03/18 11:33:20;;;;;;;10.35;6.05;;;6.80;99.90;;;;;;5042177;28;20025;-65
2021/03/18 11:35:50;;;;;;;10.50;5.97;;;7.00;99.90;;;;;;5045051;28;20021;-66
2021/03/18 11:38:17;;;;;;;14.23;7.68;;;6.90;99.90;;;;;;5044766;28;20551;-67
2021/03/18 11:40:46;;;;;;;13.25;7.55;;;6.80;99.90;;;;;;5043453;28;20017;-65
2021/03/18 11:43:14;;;;;;;8.25;5.57;;;6.90;99.90;;;;;;5042553;28;20029;-66
2021/03/18 11:45:42;;;;;;;6.93;4.60;;;7.00;99.90;;;;;;5045344;28;20021;-67
2021/03/18 11:48:10;;;;;;;7.57;4.88;;;7.20;99.90;;;;;;5044979;28;20078;-69
2021/03/18 11:50:38;;;;;;;6.35;3.53;;;7.20;99.90;;;;;;5042448;28;20029;-69
2021/03/18 11:53:05;;;;;;;7.22;5.15;;;7.40;99.90;;;;;;5043192;28;20061;-68
2021/03/18 11:55:30;;;;;;;6.18;4.95;;;7.30;99.90;;;;;;5044097;28;20018;-70
2021/03/18 11:57:57;;;;;;;5.80;4.68;;;7.40;99.90;;;;;;5043085;28;20096;-70
2021/03/18 12:00:25;;;;;;;6.47;4.30;;;7.30;99.90;;;;;;5043378;28;20136;-71
2021/03/18 12:02:53;;;;;;;5.10;3.50;;;7.20;99.90;;;;;;5043729;28;20033;-69
2021/03/18 12:05:19;;;;;;;4.13;2.78;;;7.50;99.90;;;;;;5043245;28;20025;-69
2021/03/18 12:07:47;;;;;;;5.53;3.03;;;7.60;99.90;;;;;;5041782;28;20437;-66
2021/03/18 12:10:15;;;;;;;6.10;4.20;;;7.60;99.90;;;;;;5043132;28;20044;-67
2021/03/18 12:12:42;;;;;;;6.47;3.60;;;7.40;99.90;;;;;;5043269;28;20159;-67
2021/03/18 12:15:10;;;;;;;4.13;3.17;;;7.30;99.90;;;;;;5044063;28;20490;-66
2021/03/18 12:17:37;;;;;;;3.95;2.95;;;7.40;99.90;;;;;;5047452;28;20403;-67
2021/03/18 12:20:05;;;;;;;4.72;3.10;;;7.40;99.90;;;;;;5045748;28;20910;-64
2021/03/18 12:22:31;;;;;;;3.72;2.78;;;7.40;99.90;;;;;;5044045;28;20462;-67
2021/03/18 12:24:59;;;;;;;4.45;2.80;;;7.50;99.90;;;;;;5046802;28;20051;-69
2021/03/18 12:27:25;;;;;;;4.18;2.92;;;7.80;99.90;;;;;;5046422;28;20025;-69
2021/03/18 12:29:53;;;;;;;3.33;2.42;;;7.80;99.90;;;;;;5047032;28;20017;-66
2021/03/18 12:32:21;;;;;;;5.05;3.45;;;7.80;99.90;;;;;;5046110;28;20094;-64
2021/03/18 12:34:49;;;;;;;4.22;3.13;;;7.70;99.90;;;;;;5044785;28;20029;-64
2021/03/18 12:37:17;;;;;;;2.90;2.47;;;7.80;99.90;;;;;;5044981;28;20060;-64
2021/03/18 12:39:44;;;;;;;4.03;2.70;;;7.80;99.90;;;;;;5044976;28;20446;-64
2021/03/18 12:42:13;;;;;;;5.95;3.50;;;7.70;99.90;;;;;;5045090;28;20837;-65
2021/03/18 12:44:40;;;;;;;4.60;2.80;;;7.60;99.90;;;;;;5051107;28;20708;-65
2021/03/18 12:47:09;;;;;;;3.65;2.90;;;7.70;99.90;;;;;;5047553;28;20167;-65
2021/03/18 12:49:37;;;;;;;3.70;2.85;;;7.80;99.90;;;;;;5048843;28;20013;-65
2021/03/18 12:52:06;;;;;;;3.10;2.28;;;8.00;99.90;;;;;;5047462;28;20079;-66
2021/03/18 12:54:36;;;;;;;3.63;2.17;;;8.10;99.90;;;;;;5047662;28;20016;-65
2021/03/18 12:57:05;;;;;;;2.67;1.92;;;7.80;99.90;;;;;;5046802;28;20025;-66
2021/03/18 12:59:33;;;;;;;3.33;2.40;;;7.80;99.90;;;;;;5046544;28;20479;-65
2021/03/18 13:02:03;;;;;;;3.55;2.20;;;7.70;99.90;;;;;;5046550;28;20033;-65
2021/03/18 13:04:30;;;;;;;4.10;2.95;;;7.70;99.90;;;;;;5047207;28;20454;-65
2021/03/18 13:06:56;;;;;;;3.45;2.20;;;7.60;99.90;;;;;;5046638;28;20100;-65
2021/03/18 13:09:24;;;;;;;4.13;2.45;;;7.70;99.90;;;;;;5046379;28;20020;-64
2021/03/18 13:11:52;;;;;;;2.40;1.77;;;7.80;99.90;;;;;;5046196;28;20483;-65